sensor_id;sensor_type;location;lat;lon;timestamp;P1;durP1;ratioP1;P2;durP2;ratioP2
7971;SDS011;4031;49.758;6.120;2023-08-01T00:01:12;1.60;;;1.50;;
7971;SDS011;4031;49.758;6.120;2023-08-01T00:03:38;2.87;;;1.27;;
7971;SDS011;4031;49.758;6.120;2023-08-01T00:06:04;2.20;;;1.20;;
7971;SDS011;4031;49.758;6.120;2023-08-01T00:08:29;1.10;;;0.80;;
7971;SDS011;4031;49.758;6.120;2023-08-01T00:10:55;1.87;;;1.27;;
7971;SDS011;4031;49.758;6.120;2023-08-01T00:13:21;1.10;;;1.00;;
7971;SDS011;4031;49.758;6.120;2023-08-01T00:15:46;1.23;;;0.70;;
7971;SDS011;4031;49.758;6.120;2023-08-01T00:18:12;0.83;;;0.83;;
7971;SDS011;4031;49.758;6.120;2023-08-01T00:20:38;1.70;;;1.07;;
7971;SDS011;4031;49.758;6.120;2023-08-01T00:23:04;1.27;;;1.10;;
7971;SDS011;4031;49.758;6.120;2023-08-01T00:25:30;0.90;;;0.90;;
7971;SDS011;4031;49.758;6.120;2023-08-01T00:27:56;0.70;;;0.70;;
7971;SDS011;4031;49.758;6.120;2023-08-01T00:30:21;1.03;;;0.63;;
7971;SDS011;4031;49.758;6.120;2023-08-01T00:32:47;1.00;;;0.80;;
7971;SDS011;4031;49.758;6.120;2023-08-01T00:35:13;1.57;;;0.60;;
7971;SDS011;4031;49.758;6.120;2023-08-01T00:37:38;0.70;;;0.60;;
7971;SDS011;4031;49.758;6.120;2023-08-01T00:40:04;1.60;;;0.80;;
7971;SDS011;4031;49.758;6.120;2023-08-01T00:42:31;1.20;;;0.67;;
7971;SDS011;4031;49.758;6.120;2023-08-01T00:44:57;3.07;;;0.77;;
7971;SDS011;4031;49.758;6.120;2023-08-01T00:47:23;0.70;;;0.60;;
7971;SDS011;4031;49.758;6.120;2023-08-01T00:49:49;1.33;;;0.80;;
7971;SDS011;4031;49.758;6.120;2023-08-01T00:52:15;1.00;;;0.80;;
7971;SDS011;4031;49.758;6.120;2023-08-01T00:54:41;1.10;;;0.70;;
7971;SDS011;4031;49.758;6.120;2023-08-01T00:57:07;1.40;;;0.83;;
7971;SDS011;4031;49.758;6.120;2023-08-01T00:59:34;0.97;;;0.70;;
7971;SDS011;4031;49.758;6.120;2023-08-01T01:02:00;0.80;;;0.70;;
7971;SDS011;4031;49.758;6.120;2023-08-01T01:04:26;3.40;;;0.90;;
7971;SDS011;4031;49.758;6.120;2023-08-01T01:06:57;1.00;;;0.90;;
7971;SDS011;4031;49.758;6.120;2023-08-01T01:09:29;0.77;;;0.57;;
7971;SDS011;4031;49.758;6.120;2023-08-01T01:11:57;2.93;;;1.00;;
7971;SDS011;4031;49.758;6.120;2023-08-01T01:14:24;1.10;;;1.00;;
7971;SDS011;4031;49.758;6.120;2023-08-01T01:16:51;1.13;;;1.10;;
7971;SDS011;4031;49.758;6.120;2023-08-01T01:19:17;1.63;;;0.93;;
7971;SDS011;4031;49.758;6.120;2023-08-01T01:21:43;1.07;;;0.83;;
7971;SDS011;4031;49.758;6.120;2023-08-01T01:24:10;0.83;;;0.77;;
7971;SDS011;4031;49.758;6.120;2023-08-01T01:26:39;0.93;;;0.83;;
7971;SDS011;4031;49.758;6.120;2023-08-01T01:29:06;1.57;;;0.70;;
7971;SDS011;4031;49.758;6.120;2023-08-01T01:31:35;1.63;;;0.93;;
7971;SDS011;4031;49.758;6.120;2023-08-01T01:34:02;0.60;;;0.50;;
7971;SDS011;4031;49.758;6.120;2023-08-01T01:36:28;1.70;;;1.00;;
7971;SDS011;4031;49.758;6.120;2023-08-01T01:38:55;1.53;;;1.00;;
7971;SDS011;4031;49.758;6.120;2023-08-01T01:41:20;1.20;;;1.00;;
7971;SDS011;4031;49.758;6.120;2023-08-01T01:43:47;1.77;;;1.37;;
7971;SDS011;4031;49.758;6.120;2023-08-01T01:46:13;2.33;;;1.13;;
7971;SDS011;4031;49.758;6.120;2023-08-01T01:48:39;0.97;;;0.70;;
7971;SDS011;4031;49.758;6.120;2023-08-01T01:51:04;1.00;;;0.67;;
7971;SDS011;4031;49.758;6.120;2023-08-01T01:53:30;2.00;;;1.20;;
7971;SDS011;4031;49.758;6.120;2023-08-01T01:55:56;2.63;;;1.13;;
7971;SDS011;4031;49.758;6.120;2023-08-01T01:58:22;2.67;;;0.93;;
7971;SDS011;4031;49.758;6.120;2023-08-01T02:00:48;0.67;;;0.67;;
7971;SDS011;4031;49.758;6.120;2023-08-01T02:03:14;0.93;;;0.90;;
7971;SDS011;4031;49.758;6.120;2023-08-01T02:05:40;0.97;;;0.87;;
7971;SDS011;4031;49.758;6.120;2023-08-01T02:08:06;1.20;;;1.00;;
7971;SDS011;4031;49.758;6.120;2023-08-01T02:10:32;0.93;;;0.80;;
7971;SDS011;4031;49.758;6.120;2023-08-01T02:12:58;1.20;;;0.50;;
7971;SDS011;4031;49.758;6.120;2023-08-01T02:15:23;0.60;;;0.50;;
7971;SDS011;4031;49.758;6.120;2023-08-01T02:17:49;1.00;;;0.80;;
7971;SDS011;4031;49.758;6.120;2023-08-01T02:20:15;0.60;;;0.60;;
7971;SDS011;4031;49.758;6.120;2023-08-01T02:22:41;0.60;;;0.43;;
7971;SDS011;4031;49.758;6.120;2023-08-01T02:25:07;0.70;;;0.50;;
7971;SDS011;4031;49.758;6.120;2023-08-01T02:27:33;1.73;;;0.60;;
7971;SDS011;4031;49.758;6.120;2023-08-01T02:29:58;0.70;;;0.60;;
7971;SDS011;4031;49.758;6.120;2023-08-01T02:32:24;0.50;;;0.40;;
7971;SDS011;4031;49.758;6.120;2023-08-01T02:34:50;0.60;;;0.50;;
7971;SDS011;4031;49.758;6.120;2023-08-01T02:37:16;4.97;;;0.90;;
7971;SDS011;4031;49.758;6.120;2023-08-01T02:39:41;0.70;;;0.50;;
7971;SDS011;4031;49.758;6.120;2023-08-01T02:42:07;0.50;;;0.50;;
7971;SDS011;4031;49.758;6.120;2023-08-01T02:44:33;1.00;;;0.90;;
7971;SDS011;4031;49.758;6.120;2023-08-01T02:46:59;0.93;;;0.50;;
7971;SDS011;4031;49.758;6.120;2023-08-01T02:49:24;3.83;;;0.60;;
7971;SDS011;4031;49.758;6.120;2023-08-01T02:51:50;0.50;;;0.40;;
7971;SDS011;4031;49.758;6.120;2023-08-01T02:54:16;1.00;;;0.60;;
7971;SDS011;4031;49.758;6.120;2023-08-01T02:56:42;1.77;;;0.50;;
7971;SDS011;4031;49.758;6.120;2023-08-01T02:59:08;0.50;;;0.50;;
7971;SDS011;4031;49.758;6.120;2023-08-01T03:01:37;0.70;;;0.60;;
7971;SDS011;4031;49.758;6.120;2023-08-01T03:04:04;0.50;;;0.47;;
7971;SDS011;4031;49.758;6.120;2023-08-01T03:06:31;1.17;;;0.80;;
7971;SDS011;4031;49.758;6.120;2023-08-01T03:08:58;0.70;;;0.50;;
7971;SDS011;4031;49.758;6.120;2023-08-01T03:11:24;0.70;;;0.53;;
7971;SDS011;4031;49.758;6.120;2023-08-01T03:13:50;0.67;;;0.40;;
7971;SDS011;4031;49.758;6.120;2023-08-01T03:16:16;0.60;;;0.50;;
7971;SDS011;4031;49.758;6.120;2023-08-01T03:18:42;1.33;;;0.40;;
7971;SDS011;4031;49.758;6.120;2023-08-01T03:21:08;0.70;;;0.60;;
7971;SDS011;4031;49.758;6.120;2023-08-01T03:23:34;0.70;;;0.40;;
7971;SDS011;4031;49.758;6.120;2023-08-01T03:26:01;0.60;;;0.40;;
7971;SDS011;4031;49.758;6.120;2023-08-01T03:28:27;0.70;;;0.40;;
7971;SDS011;4031;49.758;6.120;2023-08-01T03:30:53;0.50;;;0.33;;
7971;SDS011;4031;49.758;6.120;2023-08-01T03:33:19;0.87;;;0.40;;
7971;SDS011;4031;49.758;6.120;2023-08-01T03:35:45;0.50;;;0.40;;
7971;SDS011;4031;49.758;6.120;2023-08-01T03:38:11;0.50;;;0.30;;
7971;SDS011;4031;49.758;6.120;2023-08-01T03:40:37;0.50;;;0.30;;
7971;SDS011;4031;49.758;6.120;2023-08-01T03:43:04;0.50;;;0.30;;
7971;SDS011;4031;49.758;6.120;2023-08-01T03:45:31;1.53;;;0.33;;
7971;SDS011;4031;49.758;6.120;2023-08-01T03:47:57;0.60;;;0.50;;
7971;SDS011;4031;49.758;6.120;2023-08-01T03:50:23;1.27;;;0.50;;
7971;SDS011;4031;49.758;6.120;2023-08-01T03:52:49;0.57;;;0.37;;
7971;SDS011;4031;49.758;6.120;2023-08-01T03:55:15;0.47;;;0.33;;
7971;SDS011;4031;49.758;6.120;2023-08-01T03:57:41;1.60;;;0.50;;
7971;SDS011;4031;49.758;6.120;2023-08-01T04:00:08;0.50;;;0.30;;
7971;SDS011;4031;49.758;6.120;2023-08-01T04:02:43;0.50;;;0.30;;
7971;SDS011;4031;49.758;6.120;2023-08-01T04:05:09;0.80;;;0.40;;
7971;SDS011;4031;49.758;6.120;2023-08-01T04:07:36;0.90;;;0.60;;
7971;SDS011;4031;49.758;6.120;2023-08-01T04:10:02;0.80;;;0.40;;
7971;SDS011;4031;49.758;6.120;2023-08-01T04:12:32;0.50;;;0.30;;
7971;SDS011;4031;49.758;6.120;2023-08-01T04:14:59;0.50;;;0.30;;
7971;SDS011;4031;49.758;6.120;2023-08-01T04:17:25;0.90;;;0.50;;
7971;SDS011;4031;49.758;6.120;2023-08-01T04:19:51;0.50;;;0.30;;
7971;SDS011;4031;49.758;6.120;2023-08-01T04:22:17;0.50;;;0.40;;
7971;SDS011;4031;49.758;6.120;2023-08-01T04:24:43;0.43;;;0.30;;
7971;SDS011;4031;49.758;6.120;2023-08-01T04:27:09;0.50;;;0.40;;
7971;SDS011;4031;49.758;6.120;2023-08-01T04:29:35;0.80;;;0.40;;
7971;SDS011;4031;49.758;6.120;2023-08-01T04:32:01;0.57;;;0.30;;
7971;SDS011;4031;49.758;6.120;2023-08-01T04:34:26;0.50;;;0.30;;
7971;SDS011;4031;49.758;6.120;2023-08-01T04:36:52;0.50;;;0.40;;
7971;SDS011;4031;49.758;6.120;2023-08-01T04:39:18;0.40;;;0.30;;
7971;SDS011;4031;49.758;6.120;2023-08-01T04:41:43;0.50;;;0.30;;
7971;SDS011;4031;49.758;6.120;2023-08-01T04:44:09;0.53;;;0.37;;
7971;SDS011;4031;49.758;6.120;2023-08-01T04:46:35;0.60;;;0.40;;
7971;SDS011;4031;49.758;6.120;2023-08-01T04:49:00;0.40;;;0.30;;
7971;SDS011;4031;49.758;6.120;2023-08-01T04:51:26;0.40;;;0.30;;
7971;SDS011;4031;49.758;6.120;2023-08-01T04:53:52;0.40;;;0.30;;
7971;SDS011;4031;49.758;6.120;2023-08-01T04:56:18;0.40;;;0.30;;
7971;SDS011;4031;49.758;6.120;2023-08-01T04:58:43;0.40;;;0.30;;
7971;SDS011;4031;49.758;6.120;2023-08-01T05:01:09;0.40;;;0.30;;
7971;SDS011;4031;49.758;6.120;2023-08-01T05:03:35;0.60;;;0.40;;
7971;SDS011;4031;49.758;6.120;2023-08-01T05:06:07;0.80;;;0.50;;
7971;SDS011;4031;49.758;6.120;2023-08-01T05:08:33;0.50;;;0.37;;
7971;SDS011;4031;49.758;6.120;2023-08-01T05:10:58;0.70;;;0.43;;
7971;SDS011;4031;49.758;6.120;2023-08-01T05:13:24;0.53;;;0.40;;
7971;SDS011;4031;49.758;6.120;2023-08-01T05:15:50;0.57;;;0.43;;
7971;SDS011;4031;49.758;6.120;2023-08-01T05:18:16;1.87;;;0.80;;
7971;SDS011;4031;49.758;6.120;2023-08-01T05:20:42;0.60;;;0.50;;
7971;SDS011;4031;49.758;6.120;2023-08-01T05:23:08;0.87;;;0.57;;
7971;SDS011;4031;49.758;6.120;2023-08-01T05:25:34;1.00;;;0.80;;
7971;SDS011;4031;49.758;6.120;2023-08-01T05:28:00;1.07;;;0.80;;
7971;SDS011;4031;49.758;6.120;2023-08-01T05:30:26;1.87;;;0.77;;
7971;SDS011;4031;49.758;6.120;2023-08-01T05:32:51;0.90;;;0.60;;
7971;SDS011;4031;49.758;6.120;2023-08-01T05:35:18;1.20;;;0.70;;
7971;SDS011;4031;49.758;6.120;2023-08-01T05:37:45;0.80;;;0.80;;
7971;SDS011;4031;49.758;6.120;2023-08-01T05:40:11;1.10;;;0.80;;
7971;SDS011;4031;49.758;6.120;2023-08-01T05:42:37;1.23;;;0.73;;
7971;SDS011;4031;49.758;6.120;2023-08-01T05:45:02;1.33;;;0.93;;
7971;SDS011;4031;49.758;6.120;2023-08-01T05:47:31;1.87;;;1.03;;
7971;SDS011;4031;49.758;6.120;2023-08-01T05:49:57;1.13;;;0.90;;
7971;SDS011;4031;49.758;6.120;2023-08-01T05:52:23;1.30;;;1.07;;
7971;SDS011;4031;49.758;6.120;2023-08-01T05:54:49;1.90;;;1.10;;
7971;SDS011;4031;49.758;6.120;2023-08-01T05:57:15;1.27;;;1.00;;
7971;SDS011;4031;49.758;6.120;2023-08-01T05:59:40;4.00;;;0.90;;
7971;SDS011;4031;49.758;6.120;2023-08-01T06:02:06;1.20;;;0.90;;
7971;SDS011;4031;49.758;6.120;2023-08-01T06:04:32;3.23;;;0.97;;
7971;SDS011;4031;49.758;6.120;2023-08-01T06:06:57;1.23;;;1.13;;
7971;SDS011;4031;49.758;6.120;2023-08-01T06:09:24;1.13;;;0.93;;
7971;SDS011;4031;49.758;6.120;2023-08-01T06:11:50;2.23;;;1.03;;
7971;SDS011;4031;49.758;6.120;2023-08-01T06:14:16;1.43;;;1.20;;
7971;SDS011;4031;49.758;6.120;2023-08-01T06:16:42;2.80;;;1.20;;
7971;SDS011;4031;49.758;6.120;2023-08-01T06:19:08;1.20;;;1.10;;
7971;SDS011;4031;49.758;6.120;2023-08-01T06:21:34;1.40;;;0.90;;
7971;SDS011;4031;49.758;6.120;2023-08-01T06:23:59;1.37;;;1.20;;
7971;SDS011;4031;49.758;6.120;2023-08-01T06:26:25;1.20;;;1.10;;
7971;SDS011;4031;49.758;6.120;2023-08-01T06:28:53;2.50;;;1.00;;
7971;SDS011;4031;49.758;6.120;2023-08-01T06:31:19;1.90;;;1.40;;
7971;SDS011;4031;49.758;6.120;2023-08-01T06:33:45;1.43;;;1.33;;
7971;SDS011;4031;49.758;6.120;2023-08-01T06:36:11;1.23;;;1.13;;
7971;SDS011;4031;49.758;6.120;2023-08-01T06:38:38;1.67;;;1.30;;
7971;SDS011;4031;49.758;6.120;2023-08-01T06:41:03;4.00;;;1.70;;
7971;SDS011;4031;49.758;6.120;2023-08-01T06:43:29;2.37;;;1.67;;
7971;SDS011;4031;49.758;6.120;2023-08-01T06:45:55;1.70;;;1.60;;
7971;SDS011;4031;49.758;6.120;2023-08-01T06:48:21;6.03;;;2.17;;
7971;SDS011;4031;49.758;6.120;2023-08-01T06:50:46;1.97;;;1.43;;
7971;SDS011;4031;49.758;6.120;2023-08-01T06:53:12;2.50;;;2.10;;
7971;SDS011;4031;49.758;6.120;2023-08-01T06:55:38;2.63;;;1.70;;
7971;SDS011;4031;49.758;6.120;2023-08-01T06:58:05;3.50;;;1.60;;
7971;SDS011;4031;49.758;6.120;2023-08-01T07:00:30;2.83;;;1.73;;
7971;SDS011;4031;49.758;6.120;2023-08-01T07:02:56;2.13;;;1.80;;
7971;SDS011;4031;49.758;6.120;2023-08-01T07:05:22;1.87;;;1.30;;
7971;SDS011;4031;49.758;6.120;2023-08-01T07:07:48;2.60;;;1.90;;
7971;SDS011;4031;49.758;6.120;2023-08-01T07:10:14;2.40;;;1.33;;
7971;SDS011;4031;49.758;6.120;2023-08-01T07:12:40;1.90;;;1.80;;
7971;SDS011;4031;49.758;6.120;2023-08-01T07:15:05;3.80;;;1.77;;
7971;SDS011;4031;49.758;6.120;2023-08-01T07:17:32;2.00;;;1.10;;
7971;SDS011;4031;49.758;6.120;2023-08-01T07:19:58;1.60;;;1.27;;
7971;SDS011;4031;49.758;6.120;2023-08-01T07:22:24;1.70;;;1.50;;
7971;SDS011;4031;49.758;6.120;2023-08-01T07:24:53;1.97;;;1.77;;
7971;SDS011;4031;49.758;6.120;2023-08-01T07:27:19;2.53;;;1.73;;
7971;SDS011;4031;49.758;6.120;2023-08-01T07:29:46;3.60;;;2.13;;
7971;SDS011;4031;49.758;6.120;2023-08-01T07:32:11;10.63;;;2.20;;
7971;SDS011;4031;49.758;6.120;2023-08-01T07:34:37;2.70;;;1.53;;
7971;SDS011;4031;49.758;6.120;2023-08-01T07:37:03;1.83;;;1.60;;
7971;SDS011;4031;49.758;6.120;2023-08-01T07:39:29;4.37;;;1.90;;
7971;SDS011;4031;49.758;6.120;2023-08-01T07:41:57;2.10;;;1.90;;
7971;SDS011;4031;49.758;6.120;2023-08-01T07:44:23;2.97;;;1.70;;
7971;SDS011;4031;49.758;6.120;2023-08-01T07:46:49;3.73;;;2.37;;
7971;SDS011;4031;49.758;6.120;2023-08-01T07:49:14;2.13;;;1.93;;
7971;SDS011;4031;49.758;6.120;2023-08-01T07:51:41;4.43;;;1.80;;
7971;SDS011;4031;49.758;6.120;2023-08-01T07:54:06;2.87;;;1.90;;
7971;SDS011;4031;49.758;6.120;2023-08-01T07:56:32;2.60;;;1.60;;
7971;SDS011;4031;49.758;6.120;2023-08-01T07:58:58;5.20;;;2.30;;
7971;SDS011;4031;49.758;6.120;2023-08-01T08:01:23;2.77;;;1.77;;
7971;SDS011;4031;49.758;6.120;2023-08-01T08:03:49;3.43;;;1.77;;
7971;SDS011;4031;49.758;6.120;2023-08-01T08:06:15;1.70;;;1.50;;
7971;SDS011;4031;49.758;6.120;2023-08-01T08:08:41;2.33;;;1.70;;
7971;SDS011;4031;49.758;6.120;2023-08-01T08:11:06;2.57;;;2.07;;
7971;SDS011;4031;49.758;6.120;2023-08-01T08:13:32;1.93;;;1.63;;
7971;SDS011;4031;49.758;6.120;2023-08-01T08:15:58;3.37;;;3.07;;
7971;SDS011;4031;49.758;6.120;2023-08-01T08:18:24;1.60;;;1.50;;
7971;SDS011;4031;49.758;6.120;2023-08-01T08:20:50;4.63;;;1.83;;
7971;SDS011;4031;49.758;6.120;2023-08-01T08:23:16;4.60;;;2.07;;
7971;SDS011;4031;49.758;6.120;2023-08-01T08:25:42;2.70;;;2.00;;
7971;SDS011;4031;49.758;6.120;2023-08-01T08:28:12;2.20;;;2.00;;
7971;SDS011;4031;49.758;6.120;2023-08-01T08:30:38;2.03;;;1.73;;
7971;SDS011;4031;49.758;6.120;2023-08-01T08:33:04;3.87;;;2.13;;
7971;SDS011;4031;49.758;6.120;2023-08-01T08:35:31;2.30;;;1.80;;
7971;SDS011;4031;49.758;6.120;2023-08-01T08:38:01;5.33;;;1.87;;
7971;SDS011;4031;49.758;6.120;2023-08-01T08:40:31;2.27;;;1.53;;
7971;SDS011;4031;49.758;6.120;2023-08-01T08:42:59;4.17;;;2.10;;
7971;SDS011;4031;49.758;6.120;2023-08-01T08:45:28;3.00;;;2.23;;
7971;SDS011;4031;49.758;6.120;2023-08-01T08:48:01;2.40;;;1.73;;
7971;SDS011;4031;49.758;6.120;2023-08-01T08:50:31;2.43;;;1.77;;
7971;SDS011;4031;49.758;6.120;2023-08-01T08:52:58;2.73;;;1.77;;
7971;SDS011;4031;49.758;6.120;2023-08-01T08:55:24;2.40;;;1.43;;
7971;SDS011;4031;49.758;6.120;2023-08-01T08:57:52;3.57;;;2.13;;
7971;SDS011;4031;49.758;6.120;2023-08-01T09:00:18;3.27;;;2.17;;
7971;SDS011;4031;49.758;6.120;2023-08-01T09:02:45;2.03;;;1.77;;
7971;SDS011;4031;49.758;6.120;2023-08-01T09:05:11;6.93;;;2.10;;
7971;SDS011;4031;49.758;6.120;2023-08-01T09:07:39;3.73;;;2.10;;
7971;SDS011;4031;49.758;6.120;2023-08-01T09:10:10;3.63;;;1.90;;
7971;SDS011;4031;49.758;6.120;2023-08-01T09:12:36;6.10;;;2.17;;
7971;SDS011;4031;49.758;6.120;2023-08-01T09:15:01;3.77;;;1.77;;
7971;SDS011;4031;49.758;6.120;2023-08-01T09:17:27;2.80;;;2.00;;
7971;SDS011;4031;49.758;6.120;2023-08-01T09:20:03;2.60;;;1.70;;
7971;SDS011;4031;49.758;6.120;2023-08-01T09:22:45;2.03;;;1.90;;
7971;SDS011;4031;49.758;6.120;2023-08-01T09:25:12;2.53;;;2.17;;
7971;SDS011;4031;49.758;6.120;2023-08-01T09:27:38;3.27;;;1.90;;
7971;SDS011;4031;49.758;6.120;2023-08-01T09:30:09;3.27;;;1.97;;
7971;SDS011;4031;49.758;6.120;2023-08-01T09:32:38;2.17;;;1.83;;
7971;SDS011;4031;49.758;6.120;2023-08-01T09:35:04;5.03;;;1.90;;
7971;SDS011;4031;49.758;6.120;2023-08-01T09:37:43;3.73;;;1.60;;
7971;SDS011;4031;49.758;6.120;2023-08-01T09:40:09;2.30;;;1.40;;
7971;SDS011;4031;49.758;6.120;2023-08-01T09:42:42;6.23;;;2.50;;
7971;SDS011;4031;49.758;6.120;2023-08-01T09:47:40;2.20;;;1.20;;
7971;SDS011;4031;49.758;6.120;2023-08-01T09:50:08;5.00;;;2.40;;
7971;SDS011;4031;49.758;6.120;2023-08-01T09:52:45;2.77;;;1.73;;
7971;SDS011;4031;49.758;6.120;2023-08-01T09:55:31;3.43;;;2.23;;
7971;SDS011;4031;49.758;6.120;2023-08-01T09:57:58;2.10;;;1.53;;
7971;SDS011;4031;49.758;6.120;2023-08-01T10:00:25;3.47;;;1.97;;
7971;SDS011;4031;49.758;6.120;2023-08-01T10:02:52;4.97;;;1.60;;
7971;SDS011;4031;49.758;6.120;2023-08-01T10:05:20;4.50;;;2.33;;
7971;SDS011;4031;49.758;6.120;2023-08-01T10:07:47;3.67;;;2.30;;
7971;SDS011;4031;49.758;6.120;2023-08-01T10:10:16;3.60;;;1.60;;
7971;SDS011;4031;49.758;6.120;2023-08-01T10:12:45;3.57;;;1.77;;
7971;SDS011;4031;49.758;6.120;2023-08-01T10:15:13;4.73;;;1.67;;
7971;SDS011;4031;49.758;6.120;2023-08-01T10:17:40;2.90;;;1.90;;
7971;SDS011;4031;49.758;6.120;2023-08-01T10:20:06;2.53;;;2.00;;
7971;SDS011;4031;49.758;6.120;2023-08-01T10:22:33;2.20;;;1.60;;
7971;SDS011;4031;49.758;6.120;2023-08-01T10:24:59;1.70;;;1.27;;
7971;SDS011;4031;49.758;6.120;2023-08-01T10:27:26;1.73;;;1.50;;
7971;SDS011;4031;49.758;6.120;2023-08-01T10:30:02;2.27;;;1.40;;
7971;SDS011;4031;49.758;6.120;2023-08-01T10:32:34;3.90;;;2.00;;
7971;SDS011;4031;49.758;6.120;2023-08-01T10:35:02;2.33;;;1.67;;
7971;SDS011;4031;49.758;6.120;2023-08-01T10:37:44;3.43;;;1.87;;
7971;SDS011;4031;49.758;6.120;2023-08-01T10:40:12;1.83;;;1.53;;
7971;SDS011;4031;49.758;6.120;2023-08-01T10:42:39;4.87;;;2.20;;
7971;SDS011;4031;49.758;6.120;2023-08-01T10:45:07;2.17;;;1.97;;
7971;SDS011;4031;49.758;6.120;2023-08-01T10:47:45;2.53;;;1.60;;
7971;SDS011;4031;49.758;6.120;2023-08-01T10:50:14;5.50;;;1.83;;
7971;SDS011;4031;49.758;6.120;2023-08-01T10:52:41;1.80;;;1.60;;
7971;SDS011;4031;49.758;6.120;2023-08-01T10:55:07;2.23;;;1.80;;
7971;SDS011;4031;49.758;6.120;2023-08-01T10:57:34;2.53;;;1.70;;
7971;SDS011;4031;49.758;6.120;2023-08-01T11:00:05;1.73;;;1.33;;
7971;SDS011;4031;49.758;6.120;2023-08-01T11:02:35;1.80;;;1.33;;
7971;SDS011;4031;49.758;6.120;2023-08-01T11:05:02;3.60;;;2.03;;
7971;SDS011;4031;49.758;6.120;2023-08-01T11:07:30;3.20;;;2.07;;
7971;SDS011;4031;49.758;6.120;2023-08-01T11:10:03;1.77;;;1.40;;
7971;SDS011;4031;49.758;6.120;2023-08-01T11:12:37;2.10;;;1.90;;
7971;SDS011;4031;49.758;6.120;2023-08-01T11:15:08;3.57;;;1.30;;
7971;SDS011;4031;49.758;6.120;2023-08-01T11:17:37;2.30;;;1.40;;
7971;SDS011;4031;49.758;6.120;2023-08-01T11:20:04;3.63;;;1.50;;
7971;SDS011;4031;49.758;6.120;2023-08-01T11:22:36;2.00;;;1.57;;
7971;SDS011;4031;49.758;6.120;2023-08-01T11:25:03;3.80;;;1.93;;
7971;SDS011;4031;49.758;6.120;2023-08-01T11:27:30;4.47;;;1.40;;
7971;SDS011;4031;49.758;6.120;2023-08-01T11:29:56;1.57;;;1.37;;
7971;SDS011;4031;49.758;6.120;2023-08-01T11:32:23;2.50;;;1.17;;
7971;SDS011;4031;49.758;6.120;2023-08-01T11:34:59;2.80;;;1.57;;
7971;SDS011;4031;49.758;6.120;2023-08-01T11:37:25;2.57;;;1.20;;
7971;SDS011;4031;49.758;6.120;2023-08-01T11:39:52;1.93;;;1.20;;
7971;SDS011;4031;49.758;6.120;2023-08-01T11:42:18;4.90;;;1.60;;
7971;SDS011;4031;49.758;6.120;2023-08-01T11:44:44;3.00;;;1.33;;
7971;SDS011;4031;49.758;6.120;2023-08-01T11:47:11;2.77;;;1.17;;
7971;SDS011;4031;49.758;6.120;2023-08-01T11:49:39;3.30;;;1.70;;
7971;SDS011;4031;49.758;6.120;2023-08-01T11:52:10;4.70;;;1.60;;
7971;SDS011;4031;49.758;6.120;2023-08-01T11:54:50;1.77;;;1.30;;
7971;SDS011;4031;49.758;6.120;2023-08-01T11:57:16;1.60;;;1.50;;
7971;SDS011;4031;49.758;6.120;2023-08-01T11:59:46;2.50;;;1.20;;
7971;SDS011;4031;49.758;6.120;2023-08-01T12:02:23;2.13;;;1.47;;
7971;SDS011;4031;49.758;6.120;2023-08-01T12:04:51;2.20;;;1.50;;
7971;SDS011;4031;49.758;6.120;2023-08-01T12:07:18;1.77;;;0.97;;
7971;SDS011;4031;49.758;6.120;2023-08-01T12:09:58;2.03;;;0.93;;
7971;SDS011;4031;49.758;6.120;2023-08-01T12:12:28;1.20;;;0.90;;
7971;SDS011;4031;49.758;6.120;2023-08-01T12:14:54;1.40;;;1.20;;
7971;SDS011;4031;49.758;6.120;2023-08-01T12:17:20;2.37;;;1.10;;
7971;SDS011;4031;49.758;6.120;2023-08-01T12:19:47;3.03;;;1.40;;
7971;SDS011;4031;49.758;6.120;2023-08-01T12:22:13;3.37;;;1.47;;
7971;SDS011;4031;49.758;6.120;2023-08-01T12:24:39;1.27;;;1.03;;
7971;SDS011;4031;49.758;6.120;2023-08-01T12:27:06;2.40;;;1.60;;
7971;SDS011;4031;49.758;6.120;2023-08-01T12:29:33;3.50;;;1.53;;
7971;SDS011;4031;49.758;6.120;2023-08-01T12:31:59;1.43;;;0.70;;
7971;SDS011;4031;49.758;6.120;2023-08-01T12:34:24;2.50;;;1.17;;
7971;SDS011;4031;49.758;6.120;2023-08-01T12:36:50;3.40;;;1.23;;
7971;SDS011;4031;49.758;6.120;2023-08-01T12:39:16;2.03;;;1.47;;
7971;SDS011;4031;49.758;6.120;2023-08-01T12:41:41;3.23;;;1.67;;
7971;SDS011;4031;49.758;6.120;2023-08-01T12:44:07;3.50;;;1.43;;
7971;SDS011;4031;49.758;6.120;2023-08-01T12:46:33;1.90;;;1.50;;
7971;SDS011;4031;49.758;6.120;2023-08-01T12:48:58;1.30;;;1.03;;
7971;SDS011;4031;49.758;6.120;2023-08-01T12:51:24;2.50;;;1.70;;
7971;SDS011;4031;49.758;6.120;2023-08-01T12:53:50;2.37;;;1.20;;
7971;SDS011;4031;49.758;6.120;2023-08-01T12:56:16;8.13;;;2.13;;
7971;SDS011;4031;49.758;6.120;2023-08-01T12:58:41;0.93;;;0.83;;
7971;SDS011;4031;49.758;6.120;2023-08-01T13:01:07;1.93;;;1.30;;
7971;SDS011;4031;49.758;6.120;2023-08-01T13:03:33;2.37;;;1.10;;
7971;SDS011;4031;49.758;6.120;2023-08-01T13:05:59;0.73;;;0.50;;
7971;SDS011;4031;49.758;6.120;2023-08-01T13:08:25;1.30;;;0.80;;
7971;SDS011;4031;49.758;6.120;2023-08-01T13:10:50;0.90;;;0.73;;
7971;SDS011;4031;49.758;6.120;2023-08-01T13:13:16;1.73;;;0.70;;
7971;SDS011;4031;49.758;6.120;2023-08-01T13:15:42;2.40;;;0.97;;
7971;SDS011;4031;49.758;6.120;2023-08-01T13:18:09;1.50;;;0.57;;
7971;SDS011;4031;49.758;6.120;2023-08-01T13:20:35;1.13;;;0.93;;
7971;SDS011;4031;49.758;6.120;2023-08-01T13:23:01;0.70;;;0.70;;
7971;SDS011;4031;49.758;6.120;2023-08-01T13:25:28;1.90;;;0.50;;
7971;SDS011;4031;49.758;6.120;2023-08-01T13:27:54;1.67;;;0.73;;
7971;SDS011;4031;49.758;6.120;2023-08-01T13:30:20;0.67;;;0.63;;
7971;SDS011;4031;49.758;6.120;2023-08-01T13:32:46;2.47;;;1.00;;
7971;SDS011;4031;49.758;6.120;2023-08-01T13:35:12;1.30;;;1.13;;
7971;SDS011;4031;49.758;6.120;2023-08-01T13:37:38;4.00;;;0.80;;
7971;SDS011;4031;49.758;6.120;2023-08-01T13:40:04;0.70;;;0.60;;
7971;SDS011;4031;49.758;6.120;2023-08-01T13:42:30;1.00;;;0.80;;
7971;SDS011;4031;49.758;6.120;2023-08-01T13:44:56;1.57;;;0.83;;
7971;SDS011;4031;49.758;6.120;2023-08-01T13:47:24;1.07;;;0.83;;
7971;SDS011;4031;49.758;6.120;2023-08-01T13:49:50;2.10;;;0.83;;
7971;SDS011;4031;49.758;6.120;2023-08-01T13:52:16;3.50;;;1.23;;
7971;SDS011;4031;49.758;6.120;2023-08-01T13:54:41;3.10;;;0.87;;
7971;SDS011;4031;49.758;6.120;2023-08-01T13:57:07;2.03;;;0.70;;
7971;SDS011;4031;49.758;6.120;2023-08-01T13:59:33;3.43;;;1.00;;
7971;SDS011;4031;49.758;6.120;2023-08-01T14:01:58;2.67;;;0.90;;
7971;SDS011;4031;49.758;6.120;2023-08-01T14:04:24;1.10;;;1.00;;
7971;SDS011;4031;49.758;6.120;2023-08-01T14:06:50;3.57;;;1.27;;
7971;SDS011;4031;49.758;6.120;2023-08-01T14:09:15;3.27;;;0.93;;
7971;SDS011;4031;49.758;6.120;2023-08-01T14:11:41;1.77;;;0.90;;
7971;SDS011;4031;49.758;6.120;2023-08-01T14:14:07;1.70;;;1.17;;
7971;SDS011;4031;49.758;6.120;2023-08-01T14:16:32;1.50;;;1.10;;
7971;SDS011;4031;49.758;6.120;2023-08-01T14:18:58;1.47;;;1.33;;
7971;SDS011;4031;49.758;6.120;2023-08-01T14:21:24;1.17;;;1.07;;
7971;SDS011;4031;49.758;6.120;2023-08-01T14:23:50;1.30;;;0.90;;
7971;SDS011;4031;49.758;6.120;2023-08-01T14:26:16;2.70;;;1.07;;
7971;SDS011;4031;49.758;6.120;2023-08-01T14:28:42;2.40;;;1.20;;
7971;SDS011;4031;49.758;6.120;2023-08-01T14:31:07;3.57;;;1.27;;
7971;SDS011;4031;49.758;6.120;2023-08-01T14:33:33;2.03;;;1.10;;
7971;SDS011;4031;49.758;6.120;2023-08-01T14:35:59;1.70;;;1.43;;
7971;SDS011;4031;49.758;6.120;2023-08-01T14:38:25;2.57;;;1.17;;
7971;SDS011;4031;49.758;6.120;2023-08-01T14:40:52;3.47;;;1.37;;
7971;SDS011;4031;49.758;6.120;2023-08-01T14:43:18;3.80;;;1.50;;
7971;SDS011;4031;49.758;6.120;2023-08-01T14:45:44;2.23;;;0.97;;
7971;SDS011;4031;49.758;6.120;2023-08-01T14:48:10;4.50;;;1.23;;
7971;SDS011;4031;49.758;6.120;2023-08-01T14:50:37;2.60;;;1.27;;
7971;SDS011;4031;49.758;6.120;2023-08-01T14:53:03;4.60;;;1.63;;
7971;SDS011;4031;49.758;6.120;2023-08-01T14:55:31;1.77;;;0.90;;
7971;SDS011;4031;49.758;6.120;2023-08-01T14:57:58;1.70;;;1.03;;
7971;SDS011;4031;49.758;6.120;2023-08-01T15:00:24;0.83;;;0.80;;
7971;SDS011;4031;49.758;6.120;2023-08-01T15:02:50;2.37;;;1.30;;
7971;SDS011;4031;49.758;6.120;2023-08-01T15:05:16;2.00;;;1.10;;
7971;SDS011;4031;49.758;6.120;2023-08-01T15:07:42;3.57;;;1.40;;
7971;SDS011;4031;49.758;6.120;2023-08-01T15:10:08;3.00;;;1.20;;
7971;SDS011;4031;49.758;6.120;2023-08-01T15:12:34;3.37;;;1.00;;
7971;SDS011;4031;49.758;6.120;2023-08-01T15:15:00;2.63;;;0.93;;